Terminal Aerodrome Forecast
Issued by NWS

Home | Current Version | Previous Version | Graphics & Text | Print | Product List | Glossary On
Versions: 1 2 3 4 5 6 7 8 9 10 11 12 13 14 15 16 17 18 19
000
FTUS43 KMPX 041722
TAFRWF
TAF
KRWF 041722Z 0418/0518 17011G17KT P6SM VCSH BKN120
     FM042300 16010KT P6SM BKN250
     FM051500 19012G18KT P6SM FEW040 BKN250=

USA.gov is the U.S. government's official web portal to all federal, state and local government web resources and services.